Time;durP1;ratioP1;P1;durP2;ratioP2;P2;SDS_P1;SDS_P2;PMS_P1;PMS_P2;Temp;Humidity;BMP_temperature;BMP_pressure;BME280_temperature;BME280_humidity;BME280_pressure;Samples;Min_cycle;Max_cycle;Signal;HPM_P1;HPM_P2
2023/04/21 00:01:57;;;;;;;29.20;26.30;;;;;;;5.90;100.00;100091.19;10539692;28;20048;-76
2023/04/21 00:07:02;;;;;;;30.80;27.00;;;;;;;5.89;100.00;100083.38;10539155;28;20111;-75
2023/04/21 00:12:04;;;;;;;28.80;25.80;;;;;;;5.81;100.00;100086.09;10520845;28;20143;-76
2023/04/21 00:17:06;;;;;;;33.92;27.45;;;;;;;5.50;100.00;100078.59;10504830;28;20146;-76
2023/04/21 00:22:13;;;;;;;32.92;29.38;;;;;;;5.42;100.00;100075.19;10520480;28;20515;-77
2023/04/21 00:27:15;;;;;;;29.73;26.77;;;;;;;5.18;100.00;100081.53;10520771;28;20036;-78
2023/04/21 00:32:17;;;;;;;29.60;25.75;;;;;;;5.03;100.00;100077.28;10538168;28;20047;-76
2023/04/21 00:37:19;;;;;;;28.40;25.85;;;;;;;5.01;100.00;100073.84;10519609;28;20052;-77
2023/04/21 00:42:21;;;;;;;39.38;27.02;;;;;;;5.31;100.00;100083.13;10519220;28;20078;-77
2023/04/21 00:47:23;;;;;;;26.73;24.20;;;;;;;5.05;100.00;100066.88;10520045;28;20454;-76
2023/04/21 00:52:25;;;;;;;28.17;25.23;;;;;;;4.72;100.00;100070.59;10519905;28;20131;-76
2023/04/21 00:57:28;;;;;;;29.30;26.42;;;;;;;5.14;100.00;100068.53;10536761;28;20040;-77
2023/04/21 01:02:30;;;;;;;38.05;26.38;;;;;;;5.25;100.00;100066.69;10536165;28;20078;-76
2023/04/21 01:07:32;;;;;;;27.90;25.23;;;;;;;4.98;100.00;100060.84;10535865;28;20036;-76
2023/04/21 01:12:42;;;;;;;38.10;28.83;;;;;;;5.06;100.00;100061.66;10500303;28;20146;-76
2023/04/21 01:17:44;;;;;;;30.75;26.38;;;;;;;4.68;100.00;100063.69;10516852;28;20052;-76
2023/04/21 01:22:48;;;;;;;36.42;26.40;;;;;;;4.51;100.00;100058.59;10516402;28;20044;-76
2023/04/21 01:27:51;;;;;;;31.38;27.02;;;;;;;4.41;100.00;100054.34;10517181;28;20123;-77
2023/04/21 01:32:57;;;;;;;32.15;27.00;;;;;;;4.33;100.00;100061.31;10517074;28;20058;-76
2023/04/21 01:38:00;;;;;;;29.15;25.67;;;;;;;4.61;100.00;100056.81;10517662;28;20141;-77
2023/04/21 01:43:02;;;;;;;37.30;26.75;;;;;;;4.54;100.00;100056.84;10516969;28;20063;-76
2023/04/21 01:48:05;;;;;;;29.88;24.85;;;;;;;4.42;100.00;100045.66;10534903;28;20036;-77
2023/04/21 01:53:06;;;;;;;33.25;24.20;;;;;;;4.71;100.00;100041.09;10534795;28;20360;-77
2023/04/21 01:58:09;;;;;;;27.60;23.73;;;;;;;4.50;100.00;100038.66;10535072;28;20032;-77
2023/04/21 02:03:10;;;;;;;30.38;25.35;;;;;;;4.60;100.00;100044.66;10515635;28;20167;-76
2023/04/21 02:08:12;;;;;;;29.58;26.15;;;;;;;4.48;100.00;100036.06;10533856;28;20374;-76
2023/04/21 02:13:15;;;;;;;28.30;25.38;;;;;;;4.14;100.00;100042.34;10515535;28;20147;-77
2023/04/21 02:18:17;;;;;;;28.70;25.63;;;;;;;4.18;100.00;100033.66;10533904;28;20043;-77
2023/04/21 02:23:18;;;;;;;27.92;24.98;;;;;;;4.37;100.00;100035.25;10514884;28;20052;-76
2023/04/21 02:28:21;;;;;;;28.70;25.65;;;;;;;4.31;100.00;100030.09;10533594;28;20553;-76
2023/04/21 02:33:22;;;;;;;25.58;23.13;;;;;;;3.99;100.00;100030.31;10533492;28;20054;-77
2023/04/21 02:38:24;;;;;;;26.25;23.85;;;;;;;4.01;100.00;100026.81;10533359;28;20097;-76
2023/04/21 02:43:26;;;;;;;26.58;24.13;;;;;;;3.92;100.00;100031.19;10532869;28;20131;-76
2023/04/21 02:48:29;;;;;;;30.55;24.67;;;;;;;3.84;100.00;100040.75;10532630;28;20039;-76
2023/04/21 02:53:31;;;;;;;26.60;23.27;;;;;;;3.98;100.00;100036.34;10533207;28;20434;-78
2023/04/21 02:58:33;;;;;;;32.17;23.55;;;;;;;4.21;100.00;100041.47;10514754;28;20055;-76
2023/04/21 03:03:35;;;;;;;26.40;23.60;;;;;;;3.97;100.00;100037.22;10514421;28;20048;-76
2023/04/21 03:08:37;;;;;;;25.42;23.23;;;;;;;3.66;100.00;100033.91;10533010;28;20139;-77
2023/04/21 03:13:39;;;;;;;31.25;23.70;;;;;;;3.67;100.00;100036.47;10514288;28;20072;-76
2023/04/21 03:18:41;;;;;;;36.15;26.15;;;;;;;4.01;100.00;100037.22;10532946;28;20050;-77
2023/04/21 03:23:45;;;;;;;25.13;22.77;;;;;;;4.10;100.00;100031.09;10514569;28;20059;-76
2023/04/21 03:28:47;;;;;;;32.70;25.95;;;;;;;3.98;100.00;100023.34;10514660;28;20120;-76
2023/04/21 03:33:49;;;;;;;30.15;24.88;;;;;;;4.00;100.00;100017.28;10514157;28;20127;-76
2023/04/21 03:38:50;;;;;;;26.20;23.38;;;;;;;3.52;100.00;100019.22;10514730;28;20081;-77
2023/04/21 03:43:52;;;;;;;27.70;24.98;;;;;;;3.39;100.00;100032.25;10516839;28;20052;-77
2023/04/21 03:48:54;;;;;;;30.92;26.23;;;;;;;3.39;100.00;100033.13;10505525;28;20457;-76
2023/04/21 03:53:56;;;;;;;34.75;28.10;;;;;;;3.41;100.00;100039.19;10540528;28;20044;-77
2023/04/21 03:58:57;;;;;;;32.92;26.52;;;;;;;3.48;100.00;100032.22;10539518;28;20044;-77
2023/04/21 04:03:59;;;;;;;34.08;25.80;;;;;;;3.88;100.00;100045.94;10539302;28;20059;-77
2023/04/21 04:09:03;;;;;;;28.40;25.60;;;;;;;3.74;100.00;100056.41;10520719;28;20052;-77
2023/04/21 04:14:05;;;;;;;27.67;24.60;;;;;;;3.36;100.00;100055.66;10503391;28;20506;-77
2023/04/21 04:19:07;;;;;;;28.30;24.65;;;;;;;3.77;100.00;100058.13;10538819;28;20036;-77
2023/04/21 04:24:10;;;;;;;34.22;26.33;;;;;;;3.84;100.00;100057.22;10538960;28;20093;-77
2023/04/21 04:29:12;;;;;;;29.73;25.83;;;;;;;3.96;100.00;100059.78;10538561;28;20036;-77
2023/04/21 04:34:14;;;;;;;36.53;27.35;;;;;;;3.99;100.00;100057.19;10537305;28;20119;-77
2023/04/21 04:39:16;;;;;;;32.92;27.20;;;;;;;3.73;100.00;100061.63;10537988;28;20032;-77
2023/04/21 04:44:18;;;;;;;28.42;25.60;;;;;;;3.54;100.00;100060.78;10538043;28;20097;-77
2023/04/21 04:49:20;;;;;;;32.83;26.60;;;;;;;3.61;100.00;100064.25;10537814;28;20032;-77
2023/04/21 04:54:24;;;;;;;41.92;29.85;;;;;;;3.92;100.00;100058.06;10537717;28;20070;-75
2023/04/21 04:59:26;;;;;;;40.22;28.10;;;;;;;4.14;100.00;100056.22;10537246;28;20150;-76
2023/04/21 05:04:30;;;;;;;35.45;26.73;;;;;;;3.96;100.00;100059.78;10536998;28;20409;-77
2023/04/21 05:09:33;;;;;;;49.45;30.60;;;;;;;4.40;100.00;100061.28;10536609;28;20079;-76
2023/04/21 05:14:35;;;;;;;33.92;28.70;;;;;;;4.18;100.00;100070.94;10518135;28;20489;-76
2023/04/21 05:19:37;;;;;;;47.80;35.28;;;;;;;4.54;100.00;100069.84;10536044;28;20032;-76
2023/04/21 05:24:40;;;;;;;49.00;32.97;;;;;;;4.81;100.00;100078.34;10536552;28;20054;-77
2023/04/21 05:29:42;;;;;;;45.33;32.42;;;;;;;4.98;100.00;100073.88;10517596;28;20052;-76
2023/04/21 05:34:44;;;;;;;43.03;33.15;;;;;;;5.05;100.00;100080.75;10547364;22;20047;-72
2023/04/21 05:39:45;;;;;;;43.53;32.22;;;;;;;5.16;100.00;100083.25;10534558;28;20119;-73
2023/04/21 05:44:47;;;;;;;48.15;33.75;;;;;;;5.20;100.00;100079.75;10564936;28;20122;-72
2023/04/21 05:49:52;;;;;;;34.60;30.05;;;;;;;5.22;100.00;100072.81;10556060;28;20134;-72
2023/04/21 05:54:54;;;;;;;36.65;30.33;;;;;;;5.57;100.00;100072.41;10575022;28;20403;-72
2023/04/21 05:59:56;;;;;;;38.50;31.27;;;;;;;6.34;100.00;100070.66;10575904;28;20043;-72
2023/04/21 06:04:58;;;;;;;33.42;29.42;;;;;;;7.13;100.00;100074.66;10556336;28;20047;-72
2023/04/21 06:10:00;;;;;;;27.42;24.50;;;;;;;7.40;100.00;100060.22;10556105;28;20047;-69
2023/04/21 06:15:02;;;;;;;25.60;23.17;;;;;;;7.81;100.00;100061.19;10574339;28;20044;-72
2023/04/21 06:20:04;;;;;;;22.88;20.70;;;;;;;8.26;100.00;100066.34;10548727;28;20060;-73
2023/04/21 06:25:06;;;;;;;22.10;19.98;;;;;;;8.94;99.95;100055.19;10574257;28;20127;-71
2023/04/21 06:30:08;;;;;;;20.35;17.27;;;;;;;9.28;96.12;100053.44;10573081;28;20058;-71
2023/04/21 06:35:10;;;;;;;20.55;18.83;;;;;;;9.57;97.24;100052.66;10572541;28;20043;-71
2023/04/21 06:40:14;;;;;;;19.63;17.45;;;;;;;10.37;90.12;100057.41;10573184;28;20053;-71
2023/04/21 06:45:17;;;;;;;23.85;17.55;;;;;;;10.25;91.39;100048.97;10576335;28;20124;-71
2023/04/21 06:50:18;;;;;;;18.90;17.20;;;;;;;10.64;91.11;100056.56;10574190;28;20032;-71
2023/04/21 06:55:20;;;;;;;21.70;15.65;;;;;;;10.87;86.15;100053.19;10573518;28;20061;-71
2023/04/21 07:00:22;;;;;;;16.48;14.98;;;;;;;11.53;77.81;100051.78;10573822;28;20433;-70
2023/04/21 07:05:24;;;;;;;17.58;15.23;;;;;;;11.40;86.45;100044.38;10575394;28;20066;-71
2023/04/21 07:10:26;;;;;;;16.50;13.50;;;;;;;11.96;76.01;100042.38;10573271;28;20035;-71
2023/04/21 07:15:28;;;;;;;15.48;12.85;;;;;;;12.09;79.01;100041.00;10573289;28;20354;-71
2023/04/21 07:20:29;;;;;;;14.45;10.05;;;;;;;12.50;74.59;100048.22;10561418;28;20070;-71
2023/04/21 07:25:31;;;;;;;16.75;10.30;;;;;;;12.76;71.29;100036.63;10582166;28;20039;-71
2023/04/21 07:30:33;;;;;;;15.70;10.10;;;;;;;12.94;74.54;100038.50;10564379;28;20123;-71
2023/04/21 07:35:35;;;;;;;9.63;8.05;;;;;;;13.21;67.92;100028.56;10581862;28;20040;-70
2023/04/21 07:40:37;;;;;;;11.63;8.50;;;;;;;13.22;67.99;100029.44;10581896;28;20088;-71
2023/04/21 07:45:38;;;;;;;17.42;8.77;;;;;;;13.48;67.45;100028.34;10581957;28;20387;-71
2023/04/21 07:50:41;;;;;;;9.48;8.32;;;;;;;13.67;70.55;100012.53;10582853;28;20400;-71
2023/04/21 07:55:43;;;;;;;7.70;6.90;;;;;;;14.16;64.75;100021.72;10561904;28;20488;-71
2023/04/21 08:00:45;;;;;;;7.72;5.10;;;;;;;14.29;60.46;100017.56;10579601;28;20055;-71
2023/04/21 08:05:46;;;;;;;13.57;5.90;;;;;;;14.46;61.88;100014.13;10579741;28;20050;-71
2023/04/21 08:10:49;;;;;;;6.95;5.57;;;;;;;14.82;59.71;100019.44;10581013;28;20150;-70
2023/04/21 08:15:51;;;;;;;9.15;4.90;;;;;;;15.17;58.64;100010.66;10579658;28;20126;-71
2023/04/21 08:20:56;;;;;;;7.72;4.68;;;;;;;15.29;56.57;100015.34;10579190;28;20035;-72
2023/04/21 08:25:57;;;;;;;8.63;4.40;;;;;;;15.80;54.43;100005.59;10578668;28;20069;-72
2023/04/21 08:31:00;;;;;;;9.82;4.60;;;;;;;15.83;53.49;100011.59;10580039;28;20468;-72
2023/04/21 08:36:03;;;;;;;7.25;4.13;;;;;;;16.33;50.92;99993.84;10579096;28;20040;-72
2023/04/21 08:41:20;;;;;;;5.93;3.65;;;;;;;16.76;48.53;99994.94;10578603;28;20044;-71
2023/04/21 08:46:23;;;;;;;7.70;3.80;;;;;;;17.10;47.39;99991.19;10578140;28;20357;-71
2023/04/21 08:51:26;;;;;;;8.57;3.22;;;;;;;17.54;45.40;99977.00;10577048;28;20160;-72
2023/04/21 08:56:31;;;;;;;;;;;;;;;17.75;43.97;99984.63;10579660;28;20063;-71
2023/04/21 09:02:05;;;;;;;5.43;2.83;;;;;;;17.77;45.12;99983.59;10577649;28;20270;-71
2023/04/21 09:07:07;;;;;;;5.93;2.60;;;;;;;17.81;39.98;99976.28;10569589;28;20043;-73
2023/04/21 09:12:09;;;;;;;6.50;1.88;;;;;;;18.13;38.83;99987.53;10577023;28;20059;-71
2023/04/21 09:17:11;;;;;;;7.05;2.55;;;;;;;18.38;37.33;99973.53;10560604;28;20354;-72
2023/04/21 09:22:17;;;;;;;7.85;2.20;;;;;;;18.84;40.31;99968.69;10576478;28;20135;-72
2023/04/21 09:27:20;;;;;;;10.90;2.37;;;;;;;18.99;37.58;99971.28;10577796;28;20372;-72
2023/04/21 09:32:21;;;;;;;3.78;1.67;;;;;;;19.42;35.82;99979.84;10575922;28;20047;-72
2023/04/21 09:37:24;;;;;;;7.93;1.73;;;;;;;19.39;36.23;99972.09;10559049;28;20050;-72
2023/04/21 09:42:29;;;;;;;4.97;2.05;;;;;;;19.82;36.46;99955.75;10576307;28;20071;-72
2023/04/21 09:47:38;;;;;;;12.68;2.33;;;;;;;20.42;33.91;99952.28;10577073;28;20050;-72
2023/04/21 09:52:43;;;;;;;6.35;2.08;;;;;;;20.35;33.83;99949.19;10576503;28;20096;-72
2023/04/21 09:57:47;;;;;;;6.57;2.25;;;;;;;20.28;33.58;99947.97;10577413;28;20065;-72
2023/04/21 10:02:50;;;;;;;4.80;1.60;;;;;;;20.49;32.96;99948.19;10577559;28;20050;-72
2023/04/21 10:07:52;;;;;;;5.00;1.58;;;;;;;20.40;32.95;99941.69;10576281;28;20044;-72
2023/04/21 10:12:54;;;;;;;4.20;1.58;;;;;;;20.58;32.69;99934.16;10576673;28;20143;-72
2023/04/21 10:18:12;;;;;;;6.00;1.95;;;;;;;20.64;33.38;99922.19;10575601;28;20180;-72
2023/04/21 10:23:25;;;;;;;4.50;1.70;;;;;;;21.00;29.77;99915.00;10577668;28;20043;-72
2023/04/21 10:28:55;;;;;;;5.28;1.70;;;;;;;21.01;30.16;99930.06;10576113;28;20044;-72
2023/04/21 10:34:12;;;;;;;8.43;1.98;;;;;;;20.86;31.47;99929.44;10575532;28;20454;-72
2023/04/21 10:39:43;;;;;;;7.57;1.65;;;;;;;21.09;30.00;99917.81;10557402;28;20050;-71
2023/04/21 10:45:08;;;;;;;7.13;1.77;;;;;;;21.08;30.59;99912.59;10575495;28;20055;-71
2023/04/21 10:50:19;;;;;;;4.68;1.65;;;;;;;21.40;31.83;99910.97;10556663;28;20115;-72
2023/04/21 10:55:24;;;;;;;6.25;1.90;;;;;;;21.37;31.14;99905.84;10580860;28;20135;-72
2023/04/21 11:00:26;;;;;;;10.82;1.50;;;;;;;21.37;31.75;99911.19;10583921;28;20142;-72
2023/04/21 11:05:37;;;;;;;7.50;1.80;;;;;;;21.22;30.59;99899.00;10565864;28;20047;-72
2023/04/21 11:10:45;;;;;;;4.85;1.60;;;;;;;21.69;29.91;99904.25;10583871;28;20172;-72
2023/04/21 11:16:01;;;;;;;3.22;1.30;;;;;;;21.16;30.24;99894.13;10583128;28;20080;-72
2023/04/21 11:21:10;;;;;;;;;;;;;;;21.52;29.01;99900.28;10582766;28;20109;-72
2023/04/21 11:26:12;;;;;;;5.10;1.45;;;;;;;20.89;29.59;99883.75;10583378;28;19924;-71
2023/04/21 11:31:15;;;;;;;5.50;1.20;;;;;;;21.44;31.40;99887.50;10582388;28;20065;-71
2023/04/21 11:36:20;;;;;;;3.47;1.30;;;;;;;22.06;29.66;99870.88;10541975;22;20052;-72
2023/04/21 11:41:23;;;;;;;7.82;1.60;;;;;;;21.37;29.01;99894.31;10499043;28;20478;-73
2023/04/21 11:46:26;;;;;;;6.70;2.15;;;;;;;20.45;31.90;99877.28;10448760;28;20049;-72
2023/04/21 11:51:38;;;;;;;5.97;1.98;;;;;;;20.86;32.47;99887.53;10455538;28;20186;-72
2023/04/21 11:56:42;;;;;;;7.15;1.70;;;;;;;20.84;30.79;99873.44;10456895;28;20033;-73
2023/04/21 12:01:45;;;;;;;6.35;1.70;;;;;;;20.92;33.04;99879.03;10438737;28;20045;-72
2023/04/21 12:06:58;;;;;;;6.22;1.65;;;;;;;20.78;31.46;99871.22;10453874;28;20063;-72
2023/04/21 12:12:04;;;;;;;4.57;1.83;;;;;;;21.28;31.28;99868.25;10475433;28;20147;-72
2023/04/21 12:17:06;;;;;;;11.38;2.00;;;;;;;22.01;31.28;99870.41;10498306;28;20148;-72
2023/04/21 12:22:13;;;;;;;4.97;1.60;;;;;;;21.60;29.50;99866.59;10498336;28;20123;-73
2023/04/21 12:27:15;;;;;;;5.65;1.70;;;;;;;21.80;31.28;99867.66;10479896;28;20466;-72
2023/04/21 12:32:17;;;;;;;5.13;1.60;;;;;;;21.29;29.75;99865.47;10496612;28;20358;-72
2023/04/21 12:37:19;;;;;;;5.25;1.77;;;;;;;20.98;32.99;99850.13;10496472;28;20094;-72
2023/04/21 12:42:20;;;;;;;7.03;1.70;;;;;;;21.24;31.96;99848.94;10477151;28;20151;-72
2023/04/21 12:47:22;;;;;;;6.57;1.80;;;;;;;21.37;30.34;99846.19;10477560;28;20040;-72
2023/04/21 12:52:25;;;;;;;8.43;1.90;;;;;;;21.36;30.24;99850.69;10495401;28;20094;-71
2023/04/21 12:57:27;;;;;;;3.58;1.52;;;;;;;21.39;30.66;99854.94;10495217;28;20043;-72
2023/04/21 13:02:35;;;;;;;9.68;1.85;;;;;;;21.37;30.19;99836.34;10495935;28;20175;-73
2023/04/21 13:07:38;;;;;;;5.78;2.10;;;;;;;21.52;30.88;99836.94;10478582;28;20052;-71
2023/04/21 13:12:40;;;;;;;2.75;1.30;;;;;;;21.44;29.55;99826.00;10495929;28;20044;-71
2023/04/21 13:17:43;;;;;;;2.85;1.30;;;;;;;21.60;31.28;99829.16;10459958;28;20108;-71
2023/04/21 13:22:45;;;;;;;5.13;1.50;;;;;;;21.59;29.28;99824.75;10477158;28;20080;-72
2023/04/21 13:27:47;;;;;;;3.65;1.60;;;;;;;21.67;29.56;99816.97;10495345;28;20037;-72
2023/04/21 13:32:49;;;;;;;6.13;1.50;;;;;;;22.01;32.25;99806.19;10477179;28;20076;-71
2023/04/21 13:37:51;;;;;;;5.32;1.60;;;;;;;21.69;28.51;99818.66;10476600;28;20040;-71
2023/04/21 13:42:53;;;;;;;3.53;1.80;;;;;;;20.90;30.17;99797.31;10494356;28;20415;-72
2023/04/21 13:47:56;;;;;;;3.88;1.70;;;;;;;20.81;28.25;99782.84;10476354;28;20041;-72
2023/04/21 13:52:58;;;;;;;5.63;1.70;;;;;;;20.59;30.44;99785.50;10478350;28;20040;-72
2023/04/21 13:58:00;;;;;;;7.55;1.83;;;;;;;20.64;29.74;99781.50;10476902;28;20033;-71
2023/04/21 14:03:04;;;;;;;4.25;1.48;;;;;;;20.99;29.17;99783.22;10499169;28;20127;-72
2023/04/21 14:08:06;;;;;;;4.55;1.40;;;;;;;21.03;30.09;99767.78;10493934;28;20060;-72
2023/04/21 14:13:08;;;;;;;4.97;1.58;;;;;;;21.13;29.50;99758.06;10494608;28;20045;-73
2023/04/21 14:18:27;;;;;;;3.45;1.70;;;;;;;21.36;30.19;99758.94;10495466;28;20045;-71
2023/04/21 14:23:29;;;;;;;4.78;1.40;;;;;;;21.48;29.26;99767.78;10494704;28;20058;-72
2023/04/21 14:28:31;;;;;;;82.00;24.85;;;;;;;21.10;31.25;99759.16;10475058;28;20047;-72
2023/04/21 14:33:34;;;;;;;4.60;1.80;;;;;;;20.69;30.61;99750.91;10493212;28;20041;-71
2023/04/21 14:38:36;;;;;;;4.53;2.00;;;;;;;20.55;32.45;99743.97;10494956;28;20052;-73
2023/04/21 14:43:38;;;;;;;4.72;2.85;;;;;;;20.45;31.18;99735.78;10474963;28;20155;-71
2023/04/21 14:48:41;;;;;;;3.08;1.90;;;;;;;20.41;32.03;99729.84;10493944;28;20041;-72
2023/04/21 14:53:43;;;;;;;4.95;2.20;;;;;;;20.62;30.87;99727.34;10475162;28;20110;-70
2023/04/21 14:58:45;;;;;;;5.50;2.20;;;;;;;20.41;31.92;99735.19;10493336;28;20048;-71
2023/04/21 15:03:47;;;;;;;5.60;2.67;;;;;;;20.50;32.00;99727.47;10476017;28;20106;-72
2023/04/21 15:08:49;;;;;;;5.20;2.00;;;;;;;20.57;31.12;99724.19;10474374;28;20139;-73
2023/04/21 15:13:51;;;;;;;11.10;3.13;;;;;;;20.53;32.30;99724.53;10474155;28;20105;-72
2023/04/21 15:18:54;;;;;;;6.07;2.05;;;;;;;20.39;31.61;99710.41;10492578;28;20068;-71
2023/04/21 15:23:55;;;;;;;6.32;2.53;;;;;;;20.53;31.44;99709.38;10473836;28;20044;-73
2023/04/21 15:28:57;;;;;;;4.32;2.80;;;;;;;20.36;32.96;99716.00;10491612;28;20032;-71
2023/04/21 15:33:59;;;;;;;5.80;3.03;;;;;;;19.96;34.08;99710.19;10491170;28;20048;-72
2023/04/21 15:39:01;;;;;;;5.15;3.25;;;;;;;19.80;34.17;99699.84;10474825;28;20478;-72
2023/04/21 15:44:03;;;;;;;5.18;3.85;;;;;;;19.68;34.71;99702.56;10499832;28;20163;-71
2023/04/21 15:49:05;;;;;;;5.57;3.13;;;;;;;19.77;35.51;99688.53;10499811;28;20463;-73
2023/04/21 15:54:08;;;;;;;8.20;3.92;;;;;;;19.84;36.14;99695.97;10499768;28;20037;-72
2023/04/21 15:59:10;;;;;;;10.20;4.40;;;;;;;19.63;35.76;99692.25;10480621;28;20047;-71
2023/04/21 16:04:12;;;;;;;6.95;3.75;;;;;;;19.38;35.90;99687.84;10480446;28;20417;-72
2023/04/21 16:09:15;;;;;;;4.55;3.92;;;;;;;19.13;36.57;99691.47;10480173;28;20498;-72
2023/04/21 16:14:17;;;;;;;5.13;4.63;;;;;;;19.08;36.96;99697.13;10480189;28;20052;-72
2023/04/21 16:19:19;;;;;;;7.10;4.22;;;;;;;19.00;37.01;99690.66;10498036;28;20094;-70
2023/04/21 16:24:21;;;;;;;7.93;5.00;;;;;;;18.73;37.44;99678.34;10479049;28;20045;-72
2023/04/21 16:29:23;;;;;;;5.57;4.30;;;;;;;18.54;38.10;99676.09;10478450;28;20103;-70
2023/04/21 16:34:25;;;;;;;5.90;4.30;;;;;;;18.53;38.52;99679.72;10497369;28;20500;-70
2023/04/21 16:39:27;;;;;;;4.45;4.15;;;;;;;18.48;38.52;99686.31;10495987;28;20037;-71
2023/04/21 16:44:29;;;;;;;9.77;4.45;;;;;;;18.16;39.45;99678.78;10497111;28;20511;-72
2023/04/21 16:49:31;;;;;;;5.32;3.78;;;;;;;18.27;38.25;99672.69;10478273;28;20045;-71
2023/04/21 16:54:33;;;;;;;5.32;4.65;;;;;;;18.14;39.74;99668.22;10497348;28;20053;-71
2023/04/21 16:59:35;;;;;;;4.93;4.43;;;;;;;18.18;39.24;99671.53;10478988;28;20048;-72
2023/04/21 17:04:38;;;;;;;5.32;4.65;;;;;;;18.10;39.48;99669.38;10495513;28;20124;-70
2023/04/21 17:09:40;;;;;;;5.00;4.47;;;;;;;18.04;38.20;99664.50;10495316;28;20119;-71
2023/04/21 17:14:43;;;;;;;7.20;4.90;;;;;;;17.94;38.78;99666.09;10495214;28;20048;-72
2023/04/21 17:19:45;;;;;;;9.13;5.90;;;;;;;17.88;39.51;99669.13;10477859;28;20040;-71
2023/04/21 17:24:47;;;;;;;7.25;4.95;;;;;;;17.81;39.74;99666.06;10460928;28;20510;-71
2023/04/21 17:29:55;;;;;;;5.70;4.97;;;;;;;17.80;39.81;99663.53;10477032;28;20036;-72
2023/04/21 17:34:57;;;;;;;5.65;5.00;;;;;;;17.68;40.45;99666.97;10482610;22;20048;-72
2023/04/21 17:40:01;;;;;;;7.00;5.05;;;;;;;17.46;40.75;99668.38;10453207;28;20041;-71
2023/04/21 17:45:06;;;;;;;10.25;5.40;;;;;;;17.54;41.16;99665.22;10486418;28;20136;-72
2023/04/21 17:50:10;;;;;;;7.00;5.93;;;;;;;17.36;41.86;99667.28;10494539;28;20076;-71
2023/04/21 17:55:14;;;;;;;9.90;5.75;;;;;;;17.08;42.76;99668.22;10494660;28;20040;-71
2023/04/21 18:00:16;;;;;;;7.18;4.65;;;;;;;16.82;42.89;99675.19;10473115;28;20097;-71
2023/04/21 18:05:18;;;;;;;7.00;5.80;;;;;;;16.92;42.57;99683.44;10525226;28;20117;-72
2023/04/21 18:10:21;;;;;;;6.38;5.07;;;;;;;16.56;43.27;99680.31;10519271;28;20171;-72
2023/04/21 18:15:23;;;;;;;6.63;5.72;;;;;;;16.38;43.73;99682.31;10493197;28;20056;-72
2023/04/21 18:20:25;;;;;;;9.25;5.47;;;;;;;16.44;43.67;99689.03;10516681;28;20040;-72
2023/04/21 18:25:26;;;;;;;5.20;4.70;;;;;;;16.02;44.19;99697.75;10534939;28;20149;-70
2023/04/21 18:30:43;;;;;;;7.32;5.95;;;;;;;15.88;44.34;99693.28;10536136;28;20040;-71
2023/04/21 18:35:45;;;;;;;5.53;5.20;;;;;;;15.86;44.71;99687.22;10536383;28;20074;-71
2023/04/21 18:40:47;;;;;;;8.48;5.88;;;;;;;15.91;44.17;99695.75;10518984;28;20111;-72
2023/04/21 18:45:49;;;;;;;6.88;5.35;;;;;;;15.44;45.13;99695.81;10537436;28;20079;-72
2023/04/21 18:50:51;;;;;;;6.95;5.88;;;;;;;15.33;46.33;99701.75;10533777;28;20076;-71
2023/04/21 18:55:52;;;;;;;6.25;5.65;;;;;;;15.21;45.05;99697.13;10497908;28;20048;-72
2023/04/21 19:00:54;;;;;;;6.03;5.53;;;;;;;15.08;46.61;99703.09;10533066;28;20433;-71
2023/04/21 19:05:56;;;;;;;6.45;5.68;;;;;;;14.90;47.58;99696.19;10535321;28;20357;-72
2023/04/21 19:10:58;;;;;;;6.25;5.65;;;;;;;14.87;47.29;99699.00;10533430;28;20492;-72
2023/04/21 19:16:00;;;;;;;9.68;6.50;;;;;;;14.85;49.44;99701.72;10538132;28;20078;-72
2023/04/21 19:21:03;;;;;;;6.22;5.53;;;;;;;14.71;47.78;99696.34;10543993;28;20417;-71
2023/04/21 19:26:07;;;;;;;8.88;6.53;;;;;;;14.85;46.88;99692.94;10524564;28;20040;-72
2023/04/21 19:31:09;;;;;;;9.57;7.18;;;;;;;14.82;46.32;99701.88;10541689;28;20043;-72
2023/04/21 19:36:10;;;;;;;6.88;6.15;;;;;;;14.68;46.62;99691.22;10543651;28;20039;-72
2023/04/21 19:41:12;;;;;;;7.00;5.55;;;;;;;14.58;46.08;99696.16;10542230;28;20070;-72
2023/04/21 19:46:14;;;;;;;8.20;5.82;;;;;;;14.48;46.37;99697.59;10540868;28;20044;-72
2023/04/21 19:51:16;;;;;;;7.00;6.40;;;;;;;14.11;49.03;99696.81;10540848;28;20446;-72
2023/04/21 19:56:18;;;;;;;5.90;5.40;;;;;;;13.81;50.80;99701.00;10541091;28;20065;-72
2023/04/21 20:01:20;;;;;;;7.15;6.28;;;;;;;13.61;53.56;99697.59;10544139;28;20115;-72
2023/04/21 20:06:22;;;;;;;8.57;6.72;;;;;;;13.30;55.57;99692.09;10523558;28;20109;-73
2023/04/21 20:11:24;;;;;;;7.43;6.72;;;;;;;13.21;58.22;99692.53;10523372;28;20051;-72
2023/04/21 20:16:30;;;;;;;8.07;6.72;;;;;;;13.12;59.78;99699.09;10543300;28;20055;-72
2023/04/21 20:21:32;;;;;;;7.60;6.90;;;;;;;12.87;59.69;99704.66;10539456;28;20181;-73
2023/04/21 20:26:34;;;;;;;8.50;7.57;;;;;;;12.56;61.81;99716.59;10538737;28;20384;-72
2023/04/21 20:31:36;;;;;;;9.07;7.05;;;;;;;12.34;61.32;99710.56;10521618;28;20088;-71
2023/04/21 20:36:38;;;;;;;8.55;7.65;;;;;;;12.40;63.77;99712.97;10539554;28;20048;-71
2023/04/21 20:41:44;;;;;;;8.43;7.53;;;;;;;12.17;63.30;99707.81;10538211;28;20116;-72
2023/04/21 20:46:59;;;;;;;9.02;7.93;;;;;;;12.15;65.62;99712.31;10537413;28;20050;-72
2023/04/21 20:52:01;;;;;;;8.15;7.45;;;;;;;11.94;66.61;99714.09;10519124;28;20119;-73
2023/04/21 20:57:06;;;;;;;8.35;7.55;;;;;;;11.75;67.37;99711.34;10537313;28;20047;-72
2023/04/21 21:02:08;;;;;;;11.27;10.27;;;;;;;11.62;68.06;99713.63;10538152;28;20040;-72
2023/04/21 21:07:10;;;;;;;8.43;7.65;;;;;;;11.66;69.34;99719.63;10521207;28;20052;-72
2023/04/21 21:12:14;;;;;;;9.13;8.23;;;;;;;11.45;69.60;99719.56;10518497;28;20365;-72
2023/04/21 21:17:16;;;;;;;11.15;10.02;;;;;;;11.41;68.93;99723.25;10502120;28;20063;-72
2023/04/21 21:22:18;;;;;;;9.93;9.02;;;;;;;11.11;68.75;99720.91;10536439;28;20423;-73
2023/04/21 21:27:28;;;;;;;10.10;9.10;;;;;;;11.07;70.91;99721.94;10538106;28;20059;-72
2023/04/21 21:32:31;;;;;;;9.07;7.50;;;;;;;11.06;70.66;99728.09;10537283;28;20473;-72
2023/04/21 21:37:33;;;;;;;8.93;8.13;;;;;;;10.82;71.47;99735.16;10516243;28;20107;-73
2023/04/21 21:42:36;;;;;;;9.52;8.55;;;;;;;10.75;72.20;99743.34;10517528;28;20437;-72
2023/04/21 21:47:38;;;;;;;8.73;7.93;;;;;;;10.87;73.65;99745.50;10536712;28;20102;-72
2023/04/21 21:52:45;;;;;;;9.23;7.35;;;;;;;10.82;74.02;99747.47;10518121;28;20039;-73
2023/04/21 21:57:47;;;;;;;8.13;7.32;;;;;;;10.60;75.10;99743.00;10519683;28;20090;-74
2023/04/21 22:02:49;;;;;;;7.72;6.93;;;;;;;10.45;74.98;99738.31;10535404;28;20123;-74
2023/04/21 22:07:52;;;;;;;10.27;6.97;;;;;;;10.53;75.90;99745.88;10534798;28;20070;-74
2023/04/21 22:12:54;;;;;;;7.80;7.10;;;;;;;10.74;73.46;99763.50;10535133;28;20126;-73
2023/04/21 22:17:56;;;;;;;7.70;7.00;;;;;;;10.44;74.45;99754.09;10535825;28;20147;-73
2023/04/21 22:23:02;;;;;;;7.15;6.55;;;;;;;10.20;75.29;99753.19;10515644;28;20477;-71
2023/04/21 22:28:03;;;;;;;8.73;7.57;;;;;;;10.30;76.28;99750.19;10535234;28;20147;-72
2023/04/21 22:33:05;;;;;;;10.48;7.60;;;;;;;10.35;72.39;99760.53;10535116;28;20343;-73
2023/04/21 22:38:07;;;;;;;7.25;6.65;;;;;;;10.20;71.75;99761.06;10533584;28;20454;-72
2023/04/21 22:43:09;;;;;;;8.77;6.97;;;;;;;9.81;74.58;99761.47;10514378;28;20044;-73
2023/04/21 22:48:12;;;;;;;7.60;6.85;;;;;;;9.77;76.59;99759.88;10532133;28;20490;-72
2023/04/21 22:53:15;;;;;;;8.05;6.72;;;;;;;9.91;76.07;99765.50;10533370;28;20386;-72
2023/04/21 22:58:17;;;;;;;6.93;6.22;;;;;;;9.86;74.74;99775.31;10535607;28;20089;-72
2023/04/21 23:03:19;;;;;;;7.55;6.85;;;;;;;9.46;77.56;99771.34;10532241;28;20062;-72
2023/04/21 23:08:21;;;;;;;8.55;6.57;;;;;;;9.30;79.69;99776.22;10532097;28;20032;-73
2023/04/21 23:13:23;;;;;;;7.15;6.45;;;;;;;9.31;79.97;99779.69;10532055;28;20071;-73